LFPG Airport Information

Runway Information
Runway 08L Length 13829 ft width 148 ft
Elevation 338 ft Threshold 0 ft Heading 85
Runway 26R Length 13829 ft Width 148 ft
Elevation 318 ft Threshold 1969 ft Heading 265
Runway 08R Length 8858 ft width 197 ft
Elevation 336 ft Threshold 0 ft Heading 85
Runway 26L Length 8858 ft Width 197 ft
Elevation 316 ft Threshold 0 ft Heading 265
Runway 09L Length 8858 ft width 197 ft
Elevation 378 ft Threshold 0 ft Heading 85
Runway 27R Length 8858 ft Width 197 ft
Elevation 392 ft Threshold 0 ft Heading 265
Runway 09R Length 13780 ft width 148 ft
Elevation 370 ft Threshold 0 ft Heading 86
Runway 27L Length 13780 ft Width 148 ft
Elevation 387 ft Threshold 1969 ft Heading 266
Airport Frequencies
Type APP Name DE GAULLE Frequency 121.15 MHZ
Type APP Name DE GAULLE Frequency 136.275 MHZ
Type ATIS Name DE GAULLE Frequency 127.125 MHZ
Type DEP Name DE GAULLE Frequency 124.35 MHZ
Type GND Name DE GAULLE Frequency 118.1 MHZ
Type GND Name DE GAULLE Frequency 121.6 MHZ
Type PFLT Name DE GAULLE Frequency 126.65 MHZ
Type TWR Name DE GAULLE Frequency 119.25 MHZ
Type TWR Name DE GAULLE Frequency 120.65 MHZ
Airport Navaids
Type VOR-DME Name Charles de Gaulle Frequency 115350 KHZ
Type VOR-DME Name Charles de Gaulle Frequency 117050 KHZ
Airport Weather Information & NOTAM
ADDS - METARS form results

(0815 UTC 25 June 2018)
 
METAR text: LFPG 250800Z 04009KT 010V080 9999 FEW021 17/11 Q1025 NOSIG
Conditions at: LFPG (CHARLES DE GAULL, FR) observed 0800 UTC 25 June 2018
Temperature: 17.0°C (63°F)
Dewpoint: 11.0°C (52°F) [RH = 68%]
Pressure (altimeter): 30.27 inches Hg (1025.0 mb)
Winds: from the NE (40 degrees) at 10 MPH (9 knots; 4.7 m/s)
Visibility: 6 or more miles (10+ km)
Ceiling: at least 12,000 feet AGL
Clouds: few clouds at 2100 feet AGL
Weather: no significant weather observed at this time

METAR text: LFPG 250730Z 05009KT 020V090 9999 FEW025 16/10 Q1025 NOSIG
Conditions at: LFPG (CHARLES DE GAULL, FR) observed 0730 UTC 25 June 2018
Temperature: 16.0°C (61°F)
Dewpoint: 10.0°C (50°F) [RH = 68%]
Pressure (altimeter): 30.27 inches Hg (1025.0 mb)
Winds: from the NE (50 degrees) at 10 MPH (9 knots; 4.7 m/s)
Visibility: 6 or more miles (10+ km)
Ceiling: at least 12,000 feet AGL
Clouds: few clouds at 2500 feet AGL
Weather: no significant weather observed at this time